createdAt,value
2016-10-16T00:00:11.542Z,86.80
2016-10-16T00:00:33.262Z,86.48
2016-10-16T00:00:54.981Z,86.62
2016-10-16T00:01:16.698Z,86.62
2016-10-16T00:01:38.424Z,86.48
2016-10-16T00:02:00.158Z,86.55
2016-10-16T00:02:24.611Z,86.82
2016-10-16T00:02:46.369Z,86.72
2016-10-16T00:03:08.102Z,86.56
2016-10-16T00:03:29.817Z,86.37
2016-10-16T00:03:51.537Z,86.37
2016-10-16T00:04:13.255Z,86.20
2016-10-16T00:04:34.971Z,86.54
2016-10-16T00:04:56.687Z,87.21
2016-10-16T00:05:18.402Z,87.19
2016-10-16T00:05:40.122Z,87.15
2016-10-16T00:06:01.847Z,87.33
2016-10-16T00:06:23.564Z,86.92
2016-10-16T00:06:45.277Z,86.91
2016-10-16T00:07:06.994Z,86.86
2016-10-16T00:07:28.719Z,87.02
2016-10-16T00:07:50.517Z,87.21
2016-10-16T00:08:12.227Z,87.22
2016-10-16T00:08:33.961Z,87.16
2016-10-16T00:08:55.677Z,87.21
2016-10-16T00:09:17.406Z,87.30
2016-10-16T00:09:39.128Z,87.29
2016-10-16T00:10:00.855Z,87.55
2016-10-16T00:10:22.614Z,87.73
2016-10-16T00:10:44.336Z,87.39
2016-10-16T00:11:06.052Z,87.25
2016-10-16T00:11:27.769Z,86.83
2016-10-16T00:11:49.490Z,86.84
2016-10-16T00:12:11.212Z,87.09
2016-10-16T00:12:32.932Z,86.56
2016-10-16T00:12:54.728Z,86.61
2016-10-16T00:13:16.444Z,86.46
2016-10-16T00:13:38.160Z,86.27
2016-10-16T00:13:59.888Z,86.32
2016-10-16T00:14:21.608Z,86.35
2016-10-16T00:14:43.324Z,86.75
2016-10-16T00:15:05.040Z,87.35
2016-10-16T00:15:26.759Z,87.37
2016-10-16T00:15:48.554Z,87.24
2016-10-16T00:16:10.272Z,86.73
2016-10-16T00:16:31.995Z,86.17
2016-10-16T00:16:53.716Z,85.78
2016-10-16T00:17:15.447Z,85.76
2016-10-16T00:17:37.164Z,86.10
2016-10-16T00:17:58.881Z,86.43
2016-10-16T00:18:20.602Z,86.64
2016-10-16T00:18:42.323Z,86.90
2016-10-16T00:19:04.050Z,87.13
2016-10-16T00:19:25.758Z,86.96
2016-10-16T00:19:47.472Z,86.90
2016-10-16T00:20:09.192Z,86.94
2016-10-16T00:20:30.995Z,86.79
2016-10-16T00:20:52.712Z,86.74
2016-10-16T00:21:14.440Z,86.67
2016-10-16T00:21:36.167Z,86.62
2016-10-16T00:21:57.885Z,86.63
2016-10-16T00:22:19.600Z,86.43
2016-10-16T00:22:41.328Z,86.33
2016-10-16T00:23:03.045Z,86.29
2016-10-16T00:23:24.762Z,86.06
2016-10-16T00:23:46.476Z,86.01
2016-10-16T00:24:08.193Z,86.01
2016-10-16T00:24:29.908Z,86.30
2016-10-16T00:24:51.633Z,86.69
2016-10-16T00:25:13.348Z,86.66
2016-10-16T00:25:35.113Z,86.57
2016-10-16T00:25:56.836Z,86.38
2016-10-16T00:26:18.560Z,86.16
2016-10-16T00:26:40.277Z,86.30
2016-10-16T00:27:02.106Z,86.52
2016-10-16T00:27:23.826Z,86.26
2016-10-16T00:27:45.550Z,85.86
2016-10-16T00:28:07.272Z,86.03
2016-10-16T00:28:29.058Z,86.19
2016-10-16T00:28:50.780Z,86.42
2016-10-16T00:29:12.496Z,86.75
2016-10-16T00:29:34.209Z,87.13
2016-10-16T00:29:55.921Z,87.54
2016-10-16T00:30:17.641Z,87.85
2016-10-16T00:30:39.360Z,87.82
2016-10-16T00:31:01.083Z,87.62
2016-10-16T00:31:22.795Z,87.54
2016-10-16T00:31:44.519Z,87.67
2016-10-16T00:32:06.239Z,87.71
2016-10-16T00:32:27.960Z,87.74
2016-10-16T00:32:49.684Z,87.89
2016-10-16T00:33:11.428Z,88.02
2016-10-16T00:33:37.921Z,87.63
2016-10-16T00:33:59.642Z,87.01
2016-10-16T00:34:21.358Z,87.19
2016-10-16T00:34:43.081Z,87.43
2016-10-16T00:35:04.806Z,87.42
2016-10-16T00:35:26.522Z,87.55
2016-10-16T00:35:48.239Z,87.73
2016-10-16T00:36:09.972Z,87.64
2016-10-16T00:36:31.692Z,87.59
2016-10-16T00:36:53.410Z,87.11
2016-10-16T00:37:15.136Z,86.94
2016-10-16T00:37:36.851Z,87.01
2016-10-16T00:37:58.576Z,87.37
2016-10-16T00:38:20.289Z,87.58
2016-10-16T00:38:42.006Z,87.69
2016-10-16T00:39:03.723Z,87.28
2016-10-16T00:39:25.438Z,87.14
2016-10-16T00:39:47.164Z,86.98
2016-10-16T00:40:08.952Z,86.65
2016-10-16T00:40:30.665Z,86.35
2016-10-16T00:40:52.384Z,86.73
2016-10-16T00:41:14.103Z,86.95
2016-10-16T00:41:35.833Z,87.41
2016-10-16T00:41:57.553Z,88.22
2016-10-16T00:42:19.269Z,88.63
2016-10-16T00:42:40.992Z,88.84
2016-10-16T00:43:02.705Z,89.10
2016-10-16T00:43:24.431Z,89.11
2016-10-16T00:43:46.150Z,89.27
2016-10-16T00:44:07.867Z,89.38
2016-10-16T00:44:29.601Z,89.38
2016-10-16T00:44:51.320Z,89.15
2016-10-16T00:45:13.034Z,88.93
2016-10-16T00:45:34.755Z,88.94
2016-10-16T00:45:56.479Z,88.94
2016-10-16T00:46:18.213Z,88.96
2016-10-16T00:46:39.944Z,88.85
2016-10-16T00:47:01.667Z,88.37
2016-10-16T00:47:23.386Z,87.90
2016-10-16T00:47:45.102Z,87.48
2016-10-16T00:48:06.817Z,87.24
2016-10-16T00:48:28.535Z,87.11
2016-10-16T00:48:50.255Z,87.32
2016-10-16T00:49:11.993Z,87.48
2016-10-16T00:49:33.716Z,88.18
2016-10-16T00:49:55.421Z,88.28
2016-10-16T00:50:17.143Z,88.22
2016-10-16T00:50:38.869Z,88.13
2016-10-16T00:51:00.586Z,88.00
2016-10-16T00:51:22.298Z,87.80
2016-10-16T00:51:44.021Z,87.43
2016-10-16T00:52:05.742Z,87.32
2016-10-16T00:52:27.468Z,87.30
2016-10-16T00:52:49.179Z,87.17
2016-10-16T00:53:10.899Z,87.03
2016-10-16T00:53:32.627Z,86.95
2016-10-16T00:53:54.351Z,87.08
2016-10-16T00:54:16.096Z,87.15
2016-10-16T00:54:37.822Z,87.06
2016-10-16T00:54:59.537Z,87.13
2016-10-16T00:55:21.257Z,87.07
2016-10-16T00:55:42.978Z,87.05
2016-10-16T00:56:04.700Z,87.01
2016-10-16T00:56:26.419Z,86.88
2016-10-16T00:56:48.141Z,86.94
2016-10-16T00:57:09.880Z,86.89
2016-10-16T00:57:31.607Z,86.64
2016-10-16T00:57:53.330Z,86.60
2016-10-16T00:58:15.045Z,86.69
2016-10-16T00:58:36.760Z,86.66
2016-10-16T00:58:58.484Z,86.33
2016-10-16T00:59:20.208Z,86.33
2016-10-16T00:59:41.925Z,86.38
2016-10-16T01:00:03.675Z,86.64
2016-10-16T01:00:25.471Z,86.66
2016-10-16T01:00:47.181Z,86.73
2016-10-16T01:01:08.904Z,86.84
2016-10-16T01:01:30.622Z,87.02
2016-10-16T01:01:52.346Z,87.02
2016-10-16T01:02:14.062Z,87.12
2016-10-16T01:02:35.784Z,87.13
2016-10-16T01:02:57.575Z,86.75
2016-10-16T01:03:19.299Z,86.30
2016-10-16T01:03:41.012Z,85.66
2016-10-16T01:04:02.729Z,85.30
2016-10-16T01:04:24.450Z,85.47
2016-10-16T01:04:46.170Z,85.69
2016-10-16T01:05:07.888Z,85.85
2016-10-16T01:05:29.608Z,85.58
2016-10-16T01:05:51.326Z,85.58
2016-10-16T01:06:13.064Z,85.64
2016-10-16T01:06:34.782Z,85.68
2016-10-16T01:06:56.496Z,85.58
2016-10-16T01:07:18.213Z,85.52
2016-10-16T01:07:39.929Z,85.67
2016-10-16T01:08:01.647Z,85.87
2016-10-16T01:08:23.371Z,86.08
2016-10-16T01:08:45.087Z,86.59
2016-10-16T01:09:06.815Z,86.85
2016-10-16T01:09:28.524Z,86.90
2016-10-16T01:09:50.240Z,86.70
2016-10-16T01:10:11.952Z,86.89
2016-10-16T01:10:33.677Z,86.79
2016-10-16T01:10:55.403Z,86.97
2016-10-16T01:11:17.121Z,86.99
2016-10-16T01:11:38.839Z,86.97
2016-10-16T01:12:00.555Z,87.10
2016-10-16T01:12:22.374Z,87.06
2016-10-16T01:12:44.077Z,87.09
2016-10-16T01:13:05.792Z,87.19
2016-10-16T01:13:27.505Z,87.30
2016-10-16T01:13:49.227Z,87.46
2016-10-16T01:14:10.940Z,87.27
2016-10-16T01:14:32.657Z,87.20
2016-10-16T01:14:54.394Z,86.96
2016-10-16T01:15:16.111Z,86.55
2016-10-16T01:15:37.911Z,86.13
2016-10-16T01:15:59.634Z,85.94
2016-10-16T01:16:22.370Z,85.67
2016-10-16T01:16:44.082Z,86.04
2016-10-16T01:17:05.798Z,86.29
2016-10-16T01:17:27.514Z,86.45
2016-10-16T01:17:49.229Z,86.41
2016-10-16T01:18:10.944Z,86.30
2016-10-16T01:18:32.743Z,86.34
2016-10-16T01:18:54.461Z,86.48
2016-10-16T01:19:16.180Z,86.55
2016-10-16T01:19:37.952Z,86.52
2016-10-16T01:19:59.679Z,86.70
2016-10-16T01:20:21.393Z,86.75
2016-10-16T01:20:43.109Z,86.70
2016-10-16T01:21:04.938Z,86.64
2016-10-16T01:21:26.656Z,86.58
2016-10-16T01:21:48.371Z,86.37
2016-10-16T01:22:10.093Z,86.38
2016-10-16T01:22:31.897Z,86.48
2016-10-16T01:22:53.619Z,86.54
2016-10-16T01:23:15.338Z,86.50
2016-10-16T01:23:37.057Z,86.39
2016-10-16T01:23:58.865Z,86.38
2016-10-16T01:24:20.594Z,86.58
2016-10-16T01:24:42.307Z,86.66
2016-10-16T01:25:04.024Z,86.68
2016-10-16T01:25:25.746Z,86.74
2016-10-16T01:25:47.461Z,86.93
2016-10-16T01:26:09.201Z,87.24
2016-10-16T01:26:30.924Z,87.34
2016-10-16T01:26:52.663Z,87.20
2016-10-16T01:27:14.397Z,87.06
2016-10-16T01:27:36.107Z,86.96
2016-10-16T01:27:57.821Z,87.10
2016-10-16T01:28:19.548Z,87.03
2016-10-16T01:28:41.279Z,86.97
2016-10-16T01:29:03.001Z,87.08
2016-10-16T01:29:24.722Z,87.07
2016-10-16T01:29:46.440Z,86.90
2016-10-16T01:30:08.157Z,86.88
2016-10-16T01:30:29.869Z,86.97
2016-10-16T01:30:51.591Z,87.03
2016-10-16T01:31:13.307Z,86.99
2016-10-16T01:31:35.019Z,86.85
2016-10-16T01:31:56.734Z,86.76
2016-10-16T01:32:18.453Z,86.67
2016-10-16T01:32:40.240Z,86.54
2016-10-16T01:33:01.955Z,86.60
2016-10-16T01:33:23.674Z,86.87
2016-10-16T01:33:45.405Z,87.07
2016-10-16T01:34:07.239Z,87.12
2016-10-16T01:34:28.880Z,87.29
2016-10-16T01:34:50.605Z,87.56
2016-10-16T01:35:12.326Z,87.50
2016-10-16T01:35:34.055Z,87.28
2016-10-16T01:35:55.769Z,87.63
2016-10-16T01:36:17.481Z,87.60
2016-10-16T01:36:39.250Z,87.43
2016-10-16T01:37:00.969Z,87.40
2016-10-16T01:37:22.682Z,87.15
2016-10-16T01:37:44.413Z,86.85
2016-10-16T01:38:06.114Z,86.44
2016-10-16T01:38:27.830Z,86.39
2016-10-16T01:38:49.553Z,86.39
2016-10-16T01:39:11.269Z,86.41
2016-10-16T01:39:33.066Z,86.18
2016-10-16T01:39:54.784Z,85.84
2016-10-16T01:40:16.497Z,85.77
2016-10-16T01:40:38.224Z,86.14
2016-10-16T01:40:59.942Z,86.28
2016-10-16T01:41:21.661Z,86.31
2016-10-16T01:41:43.375Z,86.52
2016-10-16T01:42:05.223Z,86.50
2016-10-16T01:42:26.944Z,86.78
2016-10-16T01:42:48.663Z,86.97
2016-10-16T01:43:10.379Z,87.28
2016-10-16T01:43:32.095Z,87.37
2016-10-16T01:43:53.811Z,87.27
2016-10-16T01:44:15.552Z,87.19
2016-10-16T01:44:37.353Z,86.94
2016-10-16T01:44:59.067Z,86.80
2016-10-16T01:45:20.790Z,87.07
2016-10-16T01:45:42.509Z,87.16
2016-10-16T01:46:04.300Z,87.43
2016-10-16T01:46:26.015Z,87.55
2016-10-16T01:46:47.728Z,87.39
2016-10-16T01:47:09.457Z,87.60
2016-10-16T01:47:31.180Z,87.52
2016-10-16T01:47:52.901Z,87.46
2016-10-16T01:48:14.623Z,87.30
2016-10-16T01:48:36.346Z,87.04
2016-10-16T01:48:58.077Z,87.15
2016-10-16T01:49:19.793Z,87.01
2016-10-16T01:49:41.508Z,87.04
2016-10-16T01:50:03.228Z,86.99
2016-10-16T01:50:24.957Z,87.07
2016-10-16T01:50:47.668Z,87.22
2016-10-16T01:51:09.388Z,87.31
2016-10-16T01:51:31.108Z,87.44
2016-10-16T01:51:52.825Z,87.34
2016-10-16T01:52:14.541Z,87.19
2016-10-16T01:52:36.259Z,86.92
2016-10-16T01:52:57.977Z,86.65
2016-10-16T01:53:19.699Z,86.51
2016-10-16T01:53:41.414Z,86.32
2016-10-16T01:54:03.132Z,86.16
2016-10-16T01:54:24.859Z,85.98
2016-10-16T01:54:46.584Z,85.69
2016-10-16T01:55:08.298Z,85.90
2016-10-16T01:55:30.019Z,86.07
2016-10-16T01:55:51.748Z,86.22
2016-10-16T01:56:13.462Z,86.54
2016-10-16T01:56:35.183Z,86.58
2016-10-16T01:56:57.027Z,86.43
2016-10-16T01:57:18.740Z,86.51
2016-10-16T01:57:40.451Z,86.63
2016-10-16T01:58:02.175Z,86.31
2016-10-16T01:58:23.893Z,86.43
2016-10-16T01:58:45.621Z,86.54
2016-10-16T01:59:07.335Z,86.71
2016-10-16T01:59:29.052Z,86.96
2016-10-16T01:59:50.775Z,87.23
2016-10-16T02:00:12.493Z,87.26
2016-10-16T02:00:34.212Z,87.42
2016-10-16T02:00:55.926Z,87.65
2016-10-16T02:01:17.653Z,87.74
2016-10-16T02:01:39.372Z,87.70
2016-10-16T02:02:01.089Z,87.52
2016-10-16T02:02:22.805Z,87.46
2016-10-16T02:02:44.530Z,87.16
2016-10-16T02:03:06.246Z,86.74
2016-10-16T02:03:27.964Z,86.47
2016-10-16T02:03:49.686Z,86.43
2016-10-16T02:04:16.168Z,86.39
2016-10-16T02:04:37.891Z,86.02
2016-10-16T02:04:59.608Z,85.94
2016-10-16T02:05:21.326Z,85.96
2016-10-16T02:05:43.044Z,86.08
2016-10-16T02:06:04.763Z,86.11
2016-10-16T02:06:26.488Z,85.82
2016-10-16T02:06:48.214Z,86.21
2016-10-16T02:07:09.925Z,86.37
2016-10-16T02:07:31.644Z,86.42
2016-10-16T02:07:53.371Z,86.47
2016-10-16T02:08:15.094Z,86.51
2016-10-16T02:08:36.813Z,86.72
2016-10-16T02:08:58.526Z,86.93
2016-10-16T02:09:20.242Z,87.34
2016-10-16T02:09:41.969Z,87.62
2016-10-16T02:10:03.692Z,87.57
2016-10-16T02:10:25.418Z,87.60
2016-10-16T02:10:47.137Z,87.72
2016-10-16T02:11:08.854Z,87.24
2016-10-16T02:11:30.575Z,87.38
2016-10-16T02:11:52.293Z,87.04
2016-10-16T02:12:14.013Z,87.00
2016-10-16T02:12:35.733Z,86.93
2016-10-16T02:12:57.467Z,86.80
2016-10-16T02:13:19.173Z,86.46
2016-10-16T02:13:40.891Z,86.29
2016-10-16T02:14:02.603Z,86.67
2016-10-16T02:14:24.322Z,86.52
2016-10-16T02:14:46.120Z,86.87
2016-10-16T02:15:07.841Z,86.97
2016-10-16T02:15:29.562Z,86.97
2016-10-16T02:15:51.290Z,87.31
2016-10-16T02:16:13.007Z,87.46
2016-10-16T02:16:34.760Z,87.53
2016-10-16T02:16:56.477Z,87.37
2016-10-16T02:17:18.194Z,87.15
2016-10-16T02:17:39.913Z,86.96
2016-10-16T02:18:01.636Z,86.76
2016-10-16T02:18:23.354Z,86.51
2016-10-16T02:18:45.074Z,86.29
2016-10-16T02:19:06.790Z,86.04
2016-10-16T02:19:28.507Z,85.91
2016-10-16T02:19:50.227Z,85.76
2016-10-16T02:20:11.947Z,85.59
2016-10-16T02:20:33.656Z,85.66
2016-10-16T02:20:55.457Z,85.61
2016-10-16T02:21:17.168Z,85.43
2016-10-16T02:21:38.917Z,85.56
2016-10-16T02:22:00.637Z,85.54
2016-10-16T02:22:22.357Z,85.51
2016-10-16T02:22:44.070Z,85.33
2016-10-16T02:23:05.891Z,85.52
2016-10-16T02:23:27.613Z,85.74
2016-10-16T02:23:49.336Z,85.99
2016-10-16T02:24:11.058Z,85.73
2016-10-16T02:24:32.774Z,85.86
2016-10-16T02:24:54.490Z,86.04
2016-10-16T02:25:16.212Z,86.16
2016-10-16T02:25:37.942Z,86.28
2016-10-16T02:25:59.661Z,86.48
2016-10-16T02:26:21.377Z,86.61
2016-10-16T02:26:43.102Z,86.58
2016-10-16T02:27:04.885Z,86.46
2016-10-16T02:27:26.601Z,86.33
2016-10-16T02:27:48.319Z,86.21
2016-10-16T02:28:10.036Z,86.00
2016-10-16T02:28:31.754Z,85.61
2016-10-16T02:28:53.474Z,85.76
2016-10-16T02:29:15.193Z,86.03
2016-10-16T02:29:36.915Z,86.09
2016-10-16T02:29:58.760Z,85.93
2016-10-16T02:30:20.477Z,85.84
2016-10-16T02:30:42.196Z,85.70
2016-10-16T02:31:06.523Z,85.52
2016-10-16T02:31:28.376Z,85.58
2016-10-16T02:31:50.089Z,85.59
2016-10-16T02:32:11.808Z,85.51
2016-10-16T02:32:33.526Z,85.48
2016-10-16T02:32:55.255Z,85.26
2016-10-16T02:33:17.057Z,85.46
2016-10-16T02:33:38.772Z,85.95
2016-10-16T02:34:00.488Z,86.45
2016-10-16T02:34:22.210Z,86.79
2016-10-16T02:34:48.698Z,87.11
2016-10-16T02:35:10.414Z,87.27
2016-10-16T02:35:32.132Z,87.53
2016-10-16T02:35:53.847Z,87.50
2016-10-16T02:36:15.566Z,87.53
2016-10-16T02:36:37.280Z,87.32
2016-10-16T02:36:59.075Z,87.07
2016-10-16T02:37:20.794Z,86.78
2016-10-16T02:37:42.530Z,86.44
2016-10-16T02:38:04.260Z,86.26
2016-10-16T02:38:25.969Z,85.92
2016-10-16T02:38:47.690Z,86.18
2016-10-16T02:39:09.417Z,86.43
2016-10-16T02:39:31.135Z,86.51
2016-10-16T02:39:52.933Z,86.59
2016-10-16T02:40:14.648Z,86.58
2016-10-16T02:40:36.367Z,86.39
2016-10-16T02:40:58.081Z,86.31
2016-10-16T02:41:19.795Z,86.38
2016-10-16T02:41:41.509Z,86.46
2016-10-16T02:42:03.313Z,86.43
2016-10-16T02:42:25.031Z,86.50
2016-10-16T02:42:46.750Z,86.51
2016-10-16T02:43:08.492Z,86.51
2016-10-16T02:43:30.207Z,86.48
2016-10-16T02:43:51.925Z,86.56
2016-10-16T02:44:13.720Z,86.62
2016-10-16T02:44:35.438Z,87.05
2016-10-16T02:44:57.155Z,87.39
2016-10-16T02:45:18.871Z,87.48
2016-10-16T02:45:40.583Z,87.31
2016-10-16T02:46:02.301Z,87.31
2016-10-16T02:46:24.021Z,87.42
2016-10-16T02:46:45.733Z,87.25
2016-10-16T02:47:07.449Z,87.23
2016-10-16T02:47:31.751Z,87.41
2016-10-16T02:47:53.469Z,87.40
2016-10-16T02:48:15.187Z,87.32
2016-10-16T02:48:36.899Z,87.43
2016-10-16T02:48:58.626Z,87.63
2016-10-16T02:49:20.345Z,87.63
2016-10-16T02:49:42.074Z,87.60
2016-10-16T02:50:03.795Z,87.54
2016-10-16T02:50:25.589Z,87.54
2016-10-16T02:50:47.312Z,87.52
2016-10-16T02:51:09.037Z,87.65
2016-10-16T02:51:30.756Z,87.44
2016-10-16T02:51:52.471Z,87.26
2016-10-16T02:52:14.187Z,87.28
2016-10-16T02:52:35.905Z,87.30
2016-10-16T02:52:57.623Z,87.15
2016-10-16T02:53:19.364Z,87.42
2016-10-16T02:53:45.830Z,87.11
2016-10-16T02:54:07.562Z,86.94
2016-10-16T02:54:29.359Z,87.16
2016-10-16T02:54:52.072Z,87.16
2016-10-16T02:55:13.787Z,87.30
2016-10-16T02:55:35.501Z,87.41
2016-10-16T02:55:57.333Z,87.33
2016-10-16T02:56:19.052Z,87.38
2016-10-16T02:56:40.766Z,87.05
2016-10-16T02:57:02.487Z,86.92
2016-10-16T02:57:24.282Z,86.79
2016-10-16T02:57:45.995Z,86.74
2016-10-16T02:58:07.714Z,86.58
2016-10-16T02:58:29.433Z,86.56
2016-10-16T02:58:51.146Z,86.64
2016-10-16T02:59:12.941Z,86.58
2016-10-16T02:59:34.651Z,86.71
2016-10-16T02:59:56.366Z,86.77
2016-10-16T03:00:18.087Z,86.81
2016-10-16T03:00:39.812Z,86.85
2016-10-16T03:01:01.527Z,86.61
2016-10-16T03:01:23.332Z,86.63
2016-10-16T03:01:45.051Z,86.72
2016-10-16T03:02:06.773Z,86.69
2016-10-16T03:02:28.490Z,86.69
2016-10-16T03:02:50.287Z,86.72
2016-10-16T03:03:12.011Z,86.73
2016-10-16T03:03:33.731Z,86.87
2016-10-16T03:03:55.443Z,86.89
2016-10-16T03:04:17.240Z,86.76
2016-10-16T03:04:38.960Z,86.92
2016-10-16T03:05:00.682Z,87.13
2016-10-16T03:05:22.400Z,87.25
2016-10-16T03:05:44.124Z,87.21
2016-10-16T03:06:05.839Z,87.28
2016-10-16T03:06:27.574Z,87.43
2016-10-16T03:06:49.293Z,87.52
2016-10-16T03:07:11.006Z,87.41
2016-10-16T03:07:32.728Z,87.38
2016-10-16T03:07:54.447Z,87.38
2016-10-16T03:08:16.243Z,87.34
2016-10-16T03:08:37.956Z,87.21
2016-10-16T03:09:04.447Z,87.09
2016-10-16T03:09:26.172Z,87.07
2016-10-16T03:09:47.889Z,87.15
2016-10-16T03:10:09.689Z,87.11
2016-10-16T03:10:31.404Z,87.14
2016-10-16T03:10:53.115Z,87.24
2016-10-16T03:11:14.917Z,87.37
2016-10-16T03:11:36.634Z,87.75
2016-10-16T03:11:58.356Z,87.89
2016-10-16T03:12:20.074Z,87.94
2016-10-16T03:12:41.796Z,88.02
2016-10-16T03:13:03.518Z,87.86
2016-10-16T03:13:25.233Z,87.85
2016-10-16T03:13:46.943Z,87.93
2016-10-16T03:14:08.672Z,87.61
2016-10-16T03:14:30.391Z,87.13
2016-10-16T03:14:52.110Z,86.66
2016-10-16T03:15:13.911Z,86.26
2016-10-16T03:15:35.625Z,86.16
2016-10-16T03:15:57.349Z,86.24
2016-10-16T03:16:19.070Z,86.49
2016-10-16T03:16:40.871Z,86.51
2016-10-16T03:17:02.604Z,86.28
2016-10-16T03:17:24.322Z,86.15
2016-10-16T03:17:46.038Z,86.17
2016-10-16T03:18:07.763Z,86.11
2016-10-16T03:18:29.479Z,85.99
2016-10-16T03:18:51.197Z,85.80
2016-10-16T03:19:12.918Z,85.66
2016-10-16T03:19:34.655Z,85.72
2016-10-16T03:19:56.367Z,85.88
2016-10-16T03:20:18.097Z,85.57
2016-10-16T03:20:39.818Z,85.39
2016-10-16T03:21:01.530Z,85.40
2016-10-16T03:21:23.248Z,85.93
2016-10-16T03:21:44.968Z,85.98
2016-10-16T03:22:06.682Z,85.97
2016-10-16T03:22:28.404Z,86.09
2016-10-16T03:22:50.117Z,86.25
2016-10-16T03:23:11.837Z,86.46
2016-10-16T03:23:33.623Z,86.59
2016-10-16T03:23:55.348Z,86.56
2016-10-16T03:24:17.065Z,86.53
2016-10-16T03:24:38.777Z,86.74
2016-10-16T03:25:00.593Z,86.88
2016-10-16T03:25:22.319Z,87.03
2016-10-16T03:25:44.038Z,86.92
2016-10-16T03:26:05.760Z,86.90
2016-10-16T03:26:27.558Z,87.23
2016-10-16T03:26:49.271Z,87.37
2016-10-16T03:27:10.990Z,87.43
2016-10-16T03:27:32.707Z,87.88
2016-10-16T03:27:54.428Z,88.09
2016-10-16T03:28:16.146Z,88.10
2016-10-16T03:28:37.867Z,87.92
2016-10-16T03:28:59.585Z,88.07
2016-10-16T03:29:21.308Z,87.85
2016-10-16T03:29:43.094Z,87.57
2016-10-16T03:30:04.813Z,87.97
2016-10-16T03:30:26.533Z,88.53
2016-10-16T03:30:48.249Z,88.51
2016-10-16T03:31:09.968Z,88.63
2016-10-16T03:31:31.681Z,88.64
2016-10-16T03:31:53.490Z,88.66
2016-10-16T03:32:15.211Z,88.69
2016-10-16T03:32:36.923Z,88.67
2016-10-16T03:32:58.642Z,88.50
2016-10-16T03:33:20.360Z,88.53
2016-10-16T03:33:42.094Z,88.49
2016-10-16T03:34:03.811Z,88.22
2016-10-16T03:34:25.544Z,87.92
2016-10-16T03:34:47.245Z,87.25
2016-10-16T03:35:09.046Z,86.74
2016-10-16T03:35:30.758Z,86.45
2016-10-16T03:35:52.478Z,86.13
2016-10-16T03:36:14.191Z,86.24
2016-10-16T03:36:35.909Z,86.18
2016-10-16T03:36:57.700Z,86.10
2016-10-16T03:37:19.419Z,86.15
2016-10-16T03:37:41.135Z,86.26
2016-10-16T03:38:02.854Z,86.28
2016-10-16T03:38:24.567Z,85.88
2016-10-16T03:38:46.371Z,85.70
2016-10-16T03:39:08.088Z,85.98
2016-10-16T03:39:29.804Z,86.30
2016-10-16T03:39:51.514Z,86.58
2016-10-16T03:40:13.235Z,86.62
2016-10-16T03:40:34.960Z,86.77
2016-10-16T03:40:56.813Z,87.03
2016-10-16T03:41:18.526Z,86.98
2016-10-16T03:41:40.240Z,87.10
2016-10-16T03:42:01.947Z,87.36
2016-10-16T03:42:23.690Z,87.44
2016-10-16T03:42:45.485Z,87.36
2016-10-16T03:43:07.201Z,87.22
2016-10-16T03:43:28.921Z,87.17
2016-10-16T03:43:50.634Z,87.25
2016-10-16T03:44:12.348Z,87.24
2016-10-16T03:44:34.062Z,87.11
2016-10-16T03:44:55.793Z,86.79
2016-10-16T03:45:17.510Z,86.40
2016-10-16T03:45:39.227Z,86.50
2016-10-16T03:46:00.942Z,86.55
2016-10-16T03:46:22.669Z,86.35
2016-10-16T03:46:44.386Z,86.33
2016-10-16T03:47:06.108Z,86.18
2016-10-16T03:47:27.826Z,85.83
2016-10-16T03:47:49.545Z,86.12
2016-10-16T03:48:11.260Z,86.43
2016-10-16T03:48:33.071Z,86.58
2016-10-16T03:48:54.792Z,86.54
2016-10-16T03:49:16.509Z,86.58
2016-10-16T03:49:38.231Z,86.68
2016-10-16T03:49:59.948Z,87.02
2016-10-16T03:50:21.764Z,87.26
2016-10-16T03:50:43.482Z,87.45
2016-10-16T03:51:05.203Z,87.55
2016-10-16T03:51:26.942Z,87.44
2016-10-16T03:51:48.656Z,87.59
2016-10-16T03:52:10.369Z,87.87
2016-10-16T03:52:32.082Z,87.79
2016-10-16T03:52:53.882Z,87.72
2016-10-16T03:53:15.600Z,87.68
2016-10-16T03:53:37.322Z,87.65
2016-10-16T03:53:59.038Z,87.49
2016-10-16T03:54:20.767Z,87.54
2016-10-16T03:54:42.573Z,87.78
2016-10-16T03:55:04.288Z,87.93
2016-10-16T03:55:26.010Z,87.83
2016-10-16T03:55:47.728Z,87.84
2016-10-16T03:56:09.449Z,87.62
2016-10-16T03:56:31.200Z,87.54
2016-10-16T03:56:52.920Z,87.71
2016-10-16T03:57:14.641Z,87.69
2016-10-16T03:57:36.360Z,87.58
2016-10-16T03:57:58.094Z,87.47
2016-10-16T03:58:19.814Z,87.39
2016-10-16T03:58:41.525Z,87.24
2016-10-16T03:59:03.249Z,87.39
2016-10-16T03:59:24.963Z,87.73
2016-10-16T03:59:46.681Z,87.81
2016-10-16T04:00:08.396Z,87.60
2016-10-16T04:00:30.123Z,87.23
2016-10-16T04:00:51.843Z,87.52
2016-10-16T04:01:13.561Z,87.76
2016-10-16T04:01:35.279Z,87.49
2016-10-16T04:01:57.009Z,86.93
2016-10-16T04:02:18.800Z,86.47
2016-10-16T04:02:40.515Z,85.93
2016-10-16T04:03:02.243Z,86.53
2016-10-16T04:03:23.958Z,87.02
2016-10-16T04:03:45.680Z,87.73
2016-10-16T04:04:07.515Z,87.98
2016-10-16T04:04:29.225Z,88.16
2016-10-16T04:04:50.944Z,88.14
2016-10-16T04:05:12.725Z,88.03
2016-10-16T04:05:34.445Z,87.61
2016-10-16T04:05:56.171Z,87.28
2016-10-16T04:06:17.882Z,87.10
2016-10-16T04:06:39.666Z,86.86
2016-10-16T04:07:01.390Z,86.47
2016-10-16T04:07:23.116Z,86.39
2016-10-16T04:07:44.830Z,86.49
2016-10-16T04:08:06.624Z,86.52
2016-10-16T04:08:28.346Z,86.96
2016-10-16T04:08:50.072Z,86.94
2016-10-16T04:09:11.786Z,87.32
2016-10-16T04:09:33.507Z,87.84
2016-10-16T04:09:55.228Z,88.04
2016-10-16T04:10:16.941Z,87.58
2016-10-16T04:10:38.656Z,87.08
2016-10-16T04:11:00.378Z,86.94
2016-10-16T04:11:22.200Z,86.90
2016-10-16T04:11:43.915Z,86.88
2016-10-16T04:12:05.628Z,86.68
2016-10-16T04:12:27.424Z,86.65
2016-10-16T04:12:49.141Z,86.80
2016-10-16T04:13:10.859Z,86.96
2016-10-16T04:13:32.597Z,87.10
2016-10-16T04:13:54.417Z,87.19
2016-10-16T04:14:16.137Z,87.34
2016-10-16T04:14:37.865Z,87.30
2016-10-16T04:14:59.583Z,87.42
2016-10-16T04:15:21.297Z,87.97
2016-10-16T04:15:43.097Z,87.80
2016-10-16T04:16:04.817Z,87.68
2016-10-16T04:16:26.535Z,87.55
2016-10-16T04:16:48.256Z,87.54
2016-10-16T04:17:09.981Z,87.38
2016-10-16T04:17:31.779Z,87.49
2016-10-16T04:17:53.498Z,88.06
2016-10-16T04:18:15.219Z,88.44
2016-10-16T04:18:36.931Z,88.80
2016-10-16T04:18:58.649Z,88.72
2016-10-16T04:19:25.136Z,88.99
2016-10-16T04:19:46.864Z,89.04
2016-10-16T04:20:08.585Z,88.82
2016-10-16T04:20:30.298Z,88.53
2016-10-16T04:20:52.012Z,88.20
2016-10-16T04:21:13.764Z,87.92
2016-10-16T04:21:35.478Z,87.85
2016-10-16T04:21:57.198Z,87.51
2016-10-16T04:22:18.915Z,87.52
2016-10-16T04:22:40.721Z,87.78
2016-10-16T04:23:02.438Z,87.70
2016-10-16T04:23:24.151Z,87.65
2016-10-16T04:23:45.994Z,87.78
2016-10-16T04:24:07.708Z,87.59
2016-10-16T04:24:29.425Z,87.24
2016-10-16T04:24:51.142Z,87.16
2016-10-16T04:25:12.857Z,86.94
2016-10-16T04:25:34.577Z,86.87
2016-10-16T04:25:56.294Z,86.63
2016-10-16T04:26:18.009Z,86.52
2016-10-16T04:26:39.816Z,86.37
2016-10-16T04:27:01.542Z,86.21
2016-10-16T04:27:23.261Z,86.21
2016-10-16T04:27:44.972Z,86.12
2016-10-16T04:28:06.771Z,85.88
2016-10-16T04:28:28.487Z,86.21
2016-10-16T04:28:50.204Z,86.62
2016-10-16T04:29:11.921Z,86.89
2016-10-16T04:29:33.662Z,87.34
2016-10-16T04:29:55.388Z,87.66
2016-10-16T04:30:17.101Z,87.81
2016-10-16T04:30:38.823Z,87.67
2016-10-16T04:31:00.543Z,87.47
2016-10-16T04:31:22.258Z,87.55
2016-10-16T04:31:44.063Z,87.50
2016-10-16T04:32:05.781Z,87.13
2016-10-16T04:32:27.493Z,86.86
2016-10-16T04:32:49.286Z,86.69
2016-10-16T04:33:11.007Z,86.63
2016-10-16T04:33:32.721Z,86.84
2016-10-16T04:33:54.439Z,86.55
2016-10-16T04:34:16.232Z,86.42
2016-10-16T04:34:37.945Z,86.57
2016-10-16T04:34:59.662Z,86.66
2016-10-16T04:35:21.377Z,86.85
2016-10-16T04:35:43.102Z,86.86
2016-10-16T04:36:04.823Z,86.80
2016-10-16T04:36:26.540Z,86.78
2016-10-16T04:36:48.265Z,86.55
2016-10-16T04:37:10.060Z,86.30
2016-10-16T04:37:31.777Z,86.13
2016-10-16T04:37:53.492Z,85.75
2016-10-16T04:38:15.206Z,85.52
2016-10-16T04:38:36.924Z,85.44
2016-10-16T04:38:58.642Z,85.40
2016-10-16T04:39:20.358Z,85.38
2016-10-16T04:39:42.072Z,85.52
2016-10-16T04:40:03.790Z,85.71
2016-10-16T04:40:25.503Z,85.79